Weather at US Border Patrol Imperial Beach Heliport [CLOSED]

Public forecast

Using degrees Fahrenheit for public forecast. Weather courtesy of forecast.io.

Closest aviation weather report (METAR) to US Border Patrol Imperial Beach Heliport

Closest report is Naval Outlying Field Imperial Beach (Ream Field), 0.8 nm (1.6 km) W.

2024/07/22 22:53 (retrieved 27 minutes ago)

KNRS 222253Z 24008KT 10SM BKN009 BKN040 23/18 A2985 RMK AO2 SLP108 T02280178

Closest aviation forecast (TAF) to US Border Patrol Imperial Beach Heliport

Closest forecast is Aeropuerto Internacional Gral. Abelardo Rodriguez, 6.4 nm (11.9 km) E.

2024/07/22 18:51 (retrieved 4 hours ago)

TAF MMTJ 221644Z 2218/2318 30010KT P6SM SKC TX27/2222Z TN18/2309Z FM231000 00000KT 6SM HZ BKN010 TEMPO 2312/2316 4SM HZ OVC010